Terminal Aerodrome Forecast
Issued by NWS Twin Cities, MN

Home | Current Version | Previous Version | Graphics & Text | Print | Product List | Glossary On
Versions: 1 2 3 4 5 6 7 8 9 10 11 12 13 14 15 16 17 18 19
000
FTUS43 KMPX 291739
TAFSTC
TAF
KSTC 291739Z 2918/3018 32019G28KT P6SM OVC020
      TEMPO 2918/2921 SCT015 BKN040
     FM292100 32015G24KT P6SM SCT025
     FM300200 33011KT P6SM SKC
     FM300800 34003KT P6SM BKN100
     FM301500 15006KT P6SM OVC100=

USA.gov is the U.S. government's official web portal to all federal, state and local government web resources and services.